createdAt,value
2017-10-19T00:00:51.813Z,1009.04
2017-10-19T00:02:04.057Z,1009.02
2017-10-19T00:03:16.327Z,1009
2017-10-19T00:04:28.904Z,1009.03
2017-10-19T00:05:41.485Z,1009.04
2017-10-19T00:06:53.741Z,1009.05
2017-10-19T00:08:06.609Z,1009.06
2017-10-19T00:09:19.179Z,1009.09
2017-10-19T00:10:31.127Z,1009.08
2017-10-19T00:11:43.371Z,1009.06
2017-10-19T00:12:55.293Z,1009.05
2017-10-19T00:14:07.564Z,1009.04
2017-10-19T00:15:20.119Z,1009.07
2017-10-19T00:16:32.380Z,1009.08
2017-10-19T00:17:44.975Z,1009.1
2017-10-19T00:18:57.820Z,1009.1
2017-10-19T00:20:10.391Z,1009.15
2017-10-19T00:21:22.961Z,1009.14
2017-10-19T00:22:35.533Z,1009.15
2017-10-19T00:23:48.127Z,1009.16
2017-10-19T00:25:00.373Z,1009.15
2017-10-19T00:26:12.944Z,1009.09
2017-10-19T00:27:25.517Z,1009.13
2017-10-19T00:28:37.761Z,1009.15
2017-10-19T00:29:50.331Z,1009.13
2017-10-19T00:31:02.602Z,1009.14
2017-10-19T00:32:14.524Z,1009.14
2017-10-19T00:33:27.102Z,1009.11
2017-10-19T00:34:39.665Z,1009.13
2017-10-19T00:35:51.935Z,1009.15
2017-10-19T00:37:04.506Z,1009.12
2017-10-19T00:38:17.077Z,1009.13
2017-10-19T00:39:29.647Z,1009.05
2017-10-19T00:40:41.891Z,1009.06
2017-10-19T00:41:54.137Z,1009.05
2017-10-19T00:43:06.741Z,1009.05
2017-10-19T00:44:19.304Z,1009.03
2017-10-19T00:45:31.555Z,1009.03
2017-10-19T00:46:44.149Z,1009.03
2017-10-19T00:47:56.695Z,1009.04
2017-10-19T00:49:09.263Z,1009.05
2017-10-19T00:50:21.806Z,1009.03
2017-10-19T00:51:34.679Z,1009.05
2017-10-19T00:52:47.253Z,1009.01
2017-10-19T00:53:59.494Z,1009.02
2017-10-19T00:55:11.741Z,1009.06
2017-10-19T00:56:23.680Z,1009.03
2017-10-19T00:57:35.931Z,1009
2017-10-19T00:58:48.176Z,1008.98
2017-10-19T01:00:00.423Z,1008.94
2017-10-19T01:01:12.995Z,1008.95
2017-10-19T01:02:25.564Z,1008.94
2017-10-19T01:03:37.786Z,1008.92
2017-10-19T01:04:50.023Z,1008.94
2017-10-19T01:06:02.276Z,1008.91
2017-10-19T01:07:14.197Z,1008.9
2017-10-19T01:08:26.768Z,1008.92
2017-10-19T01:09:39.337Z,1008.94
2017-10-19T01:10:51.909Z,1008.95
2017-10-19T01:12:04.504Z,1008.93
2017-10-19T01:13:16.774Z,1008.97
2017-10-19T01:14:29.023Z,1008.94
2017-10-19T01:15:41.571Z,1008.95
2017-10-19T01:16:53.830Z,1009.02
2017-10-19T01:18:06.108Z,1008.97
2017-10-19T01:19:18.684Z,1009.01
2017-10-19T01:20:31.251Z,1008.98
2017-10-19T01:21:43.169Z,1008.99
2017-10-19T01:22:55.420Z,1008.97
2017-10-19T01:24:08.290Z,1008.91
2017-10-19T01:25:20.855Z,1008.93
2017-10-19T01:26:33.103Z,1008.96
2017-10-19T01:27:45.677Z,1008.95
2017-10-19T01:28:57.943Z,1008.96
2017-10-19T01:30:10.513Z,1008.9
2017-10-19T01:31:22.784Z,1008.91
2017-10-19T01:32:35.373Z,1008.92
2017-10-19T01:33:47.929Z,1008.91
2017-10-19T01:35:00.788Z,1008.89
2017-10-19T01:36:13.368Z,1008.92
2017-10-19T01:37:25.957Z,1008.93
2017-10-19T01:38:37.889Z,1008.91
2017-10-19T01:39:50.134Z,1008.91
2017-10-19T01:41:02.376Z,1008.91
2017-10-19T01:42:14.945Z,1008.92
2017-10-19T01:43:27.191Z,1008.86
2017-10-19T01:44:39.435Z,1008.86
2017-10-19T01:45:52.008Z,1008.85
2017-10-19T01:47:04.253Z,1008.84
2017-10-19T01:48:16.802Z,1008.83
2017-10-19T01:49:29.370Z,1008.88
2017-10-19T01:50:41.939Z,1008.82
2017-10-19T01:51:54.512Z,1008.84
2017-10-19T01:53:06.759Z,1008.81
2017-10-19T01:54:19.353Z,1008.78
2017-10-19T01:55:30.640Z,1008.76
2017-10-19T01:56:43.196Z,1008.76
2017-10-19T01:57:55.439Z,1008.73
2017-10-19T01:59:08.009Z,1008.78
2017-10-19T02:00:20.581Z,1008.77
2017-10-19T02:01:32.806Z,1008.77
2017-10-19T02:02:45.370Z,1008.75
2017-10-19T02:03:57.616Z,1008.72
2017-10-19T02:05:10.213Z,1008.73
2017-10-19T02:06:22.783Z,1008.75
2017-10-19T02:07:35.353Z,1008.75
2017-10-19T02:08:47.592Z,1008.78
2017-10-19T02:10:00.146Z,1008.75
2017-10-19T02:11:12.715Z,1008.8
2017-10-19T02:12:24.963Z,1008.84
2017-10-19T02:13:36.883Z,1008.81
2017-10-19T02:14:49.479Z,1008.86
2017-10-19T02:16:01.728Z,1008.82
2017-10-19T02:17:13.970Z,1008.87
2017-10-19T02:18:26.839Z,1008.87
2017-10-19T02:20:11.208Z,1008.89
2017-10-19T02:21:23.457Z,1008.84
2017-10-19T02:22:36.027Z,1008.86
2017-10-19T02:23:48.846Z,1008.86
2017-10-19T02:25:01.417Z,1008.86
2017-10-19T02:26:14.013Z,1008.9
2017-10-19T02:27:26.583Z,1008.94
2017-10-19T02:28:39.144Z,1008.99
2017-10-19T02:29:51.700Z,1008.98
2017-10-19T02:31:03.978Z,1008.96
2017-10-19T02:32:16.540Z,1009.01
2017-10-19T02:33:28.785Z,1008.97
2017-10-19T02:34:41.033Z,1008.98
2017-10-19T02:35:53.296Z,1008.99
2017-10-19T02:37:05.247Z,1008.93
2017-10-19T02:38:17.496Z,1008.93
2017-10-19T02:39:29.739Z,1008.95
2017-10-19T02:40:42.011Z,1008.93
2017-10-19T02:41:54.579Z,1008.96
2017-10-19T02:43:06.825Z,1008.95
2017-10-19T02:44:19.397Z,1008.98
2017-10-19T02:45:31.975Z,1009
2017-10-19T02:46:44.237Z,1009.01
2017-10-19T02:47:56.808Z,1009
2017-10-19T02:49:09.382Z,1009.02
2017-10-19T02:50:21.957Z,1009.02
2017-10-19T02:51:34.194Z,1009.03
2017-10-19T02:52:46.744Z,1009.02
2017-10-19T02:53:59.312Z,1009.02
2017-10-19T02:55:11.233Z,1009.03
2017-10-19T02:56:23.728Z,1009.03
2017-10-19T02:57:35.674Z,1009.02
2017-10-19T02:58:48.243Z,1009.03
2017-10-19T03:00:00.815Z,1009.03
2017-10-19T03:01:13.410Z,1009
2017-10-19T03:02:26.287Z,1009.01
2017-10-19T03:03:38.886Z,1008.99
2017-10-19T03:04:51.098Z,1009
2017-10-19T03:06:03.022Z,1008.97
2017-10-19T03:07:14.614Z,1009.04
2017-10-19T03:08:27.188Z,1009.02
2017-10-19T03:09:39.754Z,1008.98
2017-10-19T03:10:51.678Z,1009.01
2017-10-19T03:12:04.246Z,1009
2017-10-19T03:13:16.823Z,1009
2017-10-19T03:14:29.066Z,1009
2017-10-19T03:15:41.632Z,1009.03
2017-10-19T03:16:54.203Z,1009.04
2017-10-19T03:18:06.454Z,1009.01
2017-10-19T03:19:18.699Z,1009.04
2017-10-19T03:20:31.268Z,1009.02
2017-10-19T03:21:43.837Z,1009.02
2017-10-19T03:22:56.427Z,1008.96
2017-10-19T03:24:09.304Z,1009
2017-10-19T03:25:21.247Z,1008.98
2017-10-19T03:26:33.494Z,1009.01
2017-10-19T03:27:45.414Z,1009.01
2017-10-19T03:28:58.236Z,1009
2017-10-19T03:30:10.808Z,1009.06
2017-10-19T03:31:23.379Z,1009.08
2017-10-19T03:32:35.625Z,1009.08
2017-10-19T03:33:47.542Z,1009.06
2017-10-19T03:35:00.131Z,1009.08
2017-10-19T03:36:12.685Z,1009.07
2017-10-19T03:37:24.930Z,1009.08
2017-10-19T03:38:37.174Z,1009.09
2017-10-19T03:39:49.746Z,1009.08
2017-10-19T03:41:02.321Z,1009.06
2017-10-19T03:42:14.562Z,1009.1
2017-10-19T03:43:27.161Z,1009.06
2017-10-19T03:44:39.727Z,1009.07
2017-10-19T03:45:51.991Z,1009.06
2017-10-19T03:47:04.252Z,1009.11
2017-10-19T03:48:16.469Z,1009.12
2017-10-19T03:49:28.710Z,1009.13
2017-10-19T03:50:40.957Z,1009.14
2017-10-19T03:51:53.202Z,1009.14
2017-10-19T03:53:05.129Z,1009.1
2017-10-19T03:54:17.373Z,1009.14
2017-10-19T03:55:29.640Z,1009.2
2017-10-19T03:56:42.210Z,1009.19
2017-10-19T03:57:54.783Z,1009.15
2017-10-19T03:59:07.030Z,1009.16
2017-10-19T04:00:19.284Z,1009.16
2017-10-19T04:01:32.094Z,1009.15
2017-10-19T04:02:44.655Z,1009.12
2017-10-19T04:03:56.908Z,1009.12
2017-10-19T04:05:08.873Z,1009.1
2017-10-19T04:06:20.800Z,1009.09
2017-10-19T04:07:33.046Z,1009.09
2017-10-19T04:08:45.292Z,1009.09
2017-10-19T04:09:57.862Z,1009.07
2017-10-19T04:11:10.433Z,1009.11
2017-10-19T04:12:22.671Z,1009.1
2017-10-19T04:13:34.949Z,1009.11
2017-10-19T04:14:47.200Z,1009.07
2017-10-19T04:15:59.440Z,1009.09
2017-10-19T04:17:11.691Z,1009.04
2017-10-19T04:18:23.936Z,1009.08
2017-10-19T04:19:36.179Z,1009.06
2017-10-19T04:20:48.422Z,1009.02
2017-10-19T04:22:00.994Z,1009.02
2017-10-19T04:23:13.239Z,1008.98
2017-10-19T04:24:25.809Z,1009.01
2017-10-19T04:25:37.735Z,1008.99
2017-10-19T04:26:50.326Z,1008.98
2017-10-19T04:28:02.246Z,1008.98
2017-10-19T04:29:14.817Z,1008.97
2017-10-19T04:30:27.389Z,1008.97
2017-10-19T04:31:39.959Z,1008.95
2017-10-19T04:32:52.531Z,1008.91
2017-10-19T04:34:04.777Z,1008.91
2017-10-19T04:35:17.020Z,1008.95
2017-10-19T04:36:29.594Z,1008.93
2017-10-19T04:37:41.862Z,1008.95
2017-10-19T04:38:53.811Z,1008.9
2017-10-19T04:40:06.377Z,1008.93
2017-10-19T04:41:18.940Z,1008.97
2017-10-19T04:42:31.520Z,1008.95
2017-10-19T04:43:44.090Z,1008.94
2017-10-19T04:44:56.342Z,1008.96
2017-10-19T04:46:07.982Z,1008.98
2017-10-19T04:47:20.552Z,1008.98
2017-10-19T04:48:32.797Z,1008.98
2017-10-19T04:49:45.373Z,1008.98
2017-10-19T04:50:57.935Z,1009.01
2017-10-19T04:52:10.512Z,1009.03
2017-10-19T04:53:22.456Z,1009.03
2017-10-19T04:54:35.018Z,1009.02
2017-10-19T04:55:46.946Z,1008.99
2017-10-19T04:56:59.518Z,1009.04
2017-10-19T04:58:12.091Z,1009.01
2017-10-19T04:59:24.350Z,1009.02
2017-10-19T05:00:36.303Z,1009.06
2017-10-19T05:01:48.553Z,1009.05
2017-10-19T05:03:00.796Z,1009.07
2017-10-19T05:04:13.368Z,1009.07
2017-10-19T05:05:25.619Z,1009.08
2017-10-19T05:06:37.883Z,1009.08
2017-10-19T05:07:50.431Z,1009.07
2017-10-19T05:09:02.366Z,1009.07
2017-10-19T05:10:14.920Z,1009.12
2017-10-19T05:11:27.490Z,1009.04
2017-10-19T05:12:40.042Z,1009.08
2017-10-19T05:13:52.606Z,1009.08
2017-10-19T05:15:05.178Z,1009.03
2017-10-19T05:16:17.747Z,1009.01
2017-10-19T05:17:30.567Z,1008.99
2017-10-19T05:18:42.814Z,1009.04
2017-10-19T05:19:55.060Z,1008.95
2017-10-19T05:21:07.297Z,1009
2017-10-19T05:22:19.578Z,1008.98
2017-10-19T05:23:31.496Z,1009.03
2017-10-19T05:24:43.742Z,1009.04
2017-10-19T05:25:55.990Z,1009.01
2017-10-19T05:27:08.237Z,1009.03
2017-10-19T05:28:20.479Z,1009.04
2017-10-19T05:29:33.050Z,1008.99
2017-10-19T05:30:45.620Z,1009
2017-10-19T05:31:57.866Z,1009.04
2017-10-19T05:33:10.437Z,1009.04
2017-10-19T05:34:23.007Z,1009.05
2017-10-19T05:35:35.289Z,1009.06
2017-10-19T05:36:47.853Z,1009.07
2017-10-19T05:38:00.445Z,1009.15
2017-10-19T05:39:12.957Z,1009.14
2017-10-19T05:40:25.210Z,1009.14
2017-10-19T05:41:37.806Z,1009.18
2017-10-19T05:42:50.376Z,1009.21
2017-10-19T05:44:02.947Z,1009.22
2017-10-19T05:45:15.192Z,1009.2
2017-10-19T05:46:27.438Z,1009.25
2017-10-19T05:47:40.034Z,1009.24
2017-10-19T05:48:52.282Z,1009.25
2017-10-19T05:50:04.524Z,1009.26
2017-10-19T05:51:16.772Z,1009.28
2017-10-19T05:52:29.342Z,1009.26
2017-10-19T05:53:41.263Z,1009.28
2017-10-19T05:54:53.510Z,1009.27
2017-10-19T05:56:06.082Z,1009.26
2017-10-19T05:57:18.341Z,1009.29
2017-10-19T05:58:30.895Z,1009.25
2017-10-19T05:59:43.467Z,1009.27
2017-10-19T06:00:56.036Z,1009.28
2017-10-19T06:02:08.285Z,1009.32
2017-10-19T06:03:19.895Z,1009.31
2017-10-19T06:04:32.174Z,1009.3
2017-10-19T06:05:44.745Z,1009.35
2017-10-19T06:06:57.315Z,1009.38
2017-10-19T06:08:09.561Z,1009.39
2017-10-19T06:09:21.807Z,1009.37
2017-10-19T06:10:34.403Z,1009.39
2017-10-19T06:11:46.972Z,1009.39
2017-10-19T06:12:58.910Z,1009.41
2017-10-19T06:14:11.489Z,1009.44
2017-10-19T06:15:24.060Z,1009.42
2017-10-19T06:16:36.323Z,1009.44
2017-10-19T06:17:47.951Z,1009.47
2017-10-19T06:19:00.521Z,1009.48
2017-10-19T06:20:12.784Z,1009.5
2017-10-19T06:21:25.361Z,1009.53
2017-10-19T06:22:37.934Z,1009.52
2017-10-19T06:23:50.196Z,1009.53
2017-10-19T06:25:02.758Z,1009.55
2017-10-19T06:26:14.995Z,1009.58
2017-10-19T06:27:27.566Z,1009.58
2017-10-19T06:28:40.137Z,1009.59
2017-10-19T06:29:52.057Z,1009.6
2017-10-19T06:31:03.983Z,1009.6
2017-10-19T06:32:16.224Z,1009.55
2017-10-19T06:33:28.485Z,1009.59
2017-10-19T06:34:40.740Z,1009.59
2017-10-19T06:35:52.988Z,1009.59
2017-10-19T06:37:04.907Z,1009.57
2017-10-19T06:38:17.477Z,1009.58
2017-10-19T06:39:30.033Z,1009.65
2017-10-19T06:40:42.294Z,1009.66
2017-10-19T06:41:54.556Z,1009.68
2017-10-19T06:43:06.488Z,1009.66
2017-10-19T06:44:19.055Z,1009.72
2017-10-19T06:45:31.625Z,1009.69
2017-10-19T06:46:44.196Z,1009.74
2017-10-19T06:47:56.767Z,1009.7
2017-10-19T06:49:09.338Z,1009.67
2017-10-19T06:50:21.587Z,1009.68
2017-10-19T06:51:34.179Z,1009.67
2017-10-19T06:52:46.750Z,1009.7
2017-10-19T06:53:58.995Z,1009.69
2017-10-19T06:55:11.568Z,1009.69
2017-10-19T06:56:23.845Z,1009.71
2017-10-19T06:57:36.433Z,1009.7
2017-10-19T06:58:49.003Z,1009.69
2017-10-19T07:00:01.267Z,1009.7
2017-10-19T07:01:13.211Z,1009.73
2017-10-19T07:02:25.789Z,1009.72
2017-10-19T07:03:37.405Z,1009.74
2017-10-19T07:04:49.009Z,1009.76
2017-10-19T07:06:01.577Z,1009.76
2017-10-19T07:07:13.827Z,1009.83
2017-10-19T07:08:26.421Z,1009.85
2017-10-19T07:09:38.998Z,1009.88
2017-10-19T07:10:51.539Z,1009.92
2017-10-19T07:12:04.108Z,1009.92
2017-10-19T07:13:16.678Z,1009.93
2017-10-19T07:14:28.925Z,1009.89
2017-10-19T07:15:41.470Z,1009.9
2017-10-19T07:16:53.404Z,1009.91
2017-10-19T07:18:05.676Z,1009.91
2017-10-19T07:19:18.254Z,1009.92
2017-10-19T07:20:30.828Z,1009.9
2017-10-19T07:21:43.072Z,1009.92
2017-10-19T07:22:55.640Z,1009.91
2017-10-19T07:24:07.886Z,1009.94
2017-10-19T07:25:20.461Z,1009.98
2017-10-19T07:26:32.703Z,1009.93
2017-10-19T07:27:44.950Z,1010
2017-10-19T07:28:57.524Z,1010.01
2017-10-19T07:30:09.483Z,1010.02
2017-10-19T07:31:22.078Z,1009.97
2017-10-19T07:32:34.632Z,1009.94
2017-10-19T07:33:47.200Z,1009.97
2017-10-19T07:34:59.775Z,1010
2017-10-19T07:36:11.709Z,1010.06
2017-10-19T07:37:23.637Z,1010.05
2017-10-19T07:38:36.226Z,1010.06
2017-10-19T07:39:48.496Z,1010.07
2017-10-19T07:41:01.050Z,1010.05
2017-10-19T07:42:13.297Z,1010.09
2017-10-19T07:43:25.867Z,1010.14
2017-10-19T07:44:38.438Z,1010.14
2017-10-19T07:45:51.026Z,1010.16
2017-10-19T07:47:03.270Z,1010.16
2017-10-19T07:48:15.204Z,1010.11
2017-10-19T07:49:27.122Z,1010.12
2017-10-19T07:50:38.733Z,1010.15
2017-10-19T07:51:50.679Z,1010.12
2017-10-19T07:53:02.935Z,1010.12
2017-10-19T07:54:15.203Z,1010.12
2017-10-19T07:55:27.455Z,1010.12
2017-10-19T07:56:39.695Z,1010.14
2017-10-19T07:57:52.266Z,1010.13
2017-10-19T07:59:04.838Z,1010.18
2017-10-19T08:00:16.773Z,1010.15
2017-10-19T08:01:29.051Z,1010.14
2017-10-19T08:02:41.622Z,1010.14
2017-10-19T08:03:53.867Z,1010.17
2017-10-19T08:05:06.439Z,1010.12
2017-10-19T08:06:18.060Z,1010.12
2017-10-19T08:07:30.332Z,1010.12
2017-10-19T08:08:42.581Z,1010.16
2017-10-19T08:09:54.827Z,1010.13
2017-10-19T08:11:07.446Z,1010.14
2017-10-19T08:12:19.687Z,1010.1
2017-10-19T08:13:32.260Z,1010.11
2017-10-19T08:14:44.828Z,1010.11
2017-10-19T08:15:57.075Z,1010.1
2017-10-19T08:17:09.338Z,1010.11
2017-10-19T08:18:21.915Z,1010.08
2017-10-19T08:19:34.487Z,1010.13
2017-10-19T08:20:46.432Z,1010.12
2017-10-19T08:21:58.683Z,1010.11
2017-10-19T08:23:10.942Z,1010.12
2017-10-19T08:24:23.536Z,1010.11
2017-10-19T08:25:35.143Z,1010.08
2017-10-19T08:26:47.388Z,1010.11
2017-10-19T08:27:59.959Z,1010.15
2017-10-19T08:29:12.226Z,1010.13
2017-10-19T08:30:24.797Z,1010.13
2017-10-19T08:31:37.043Z,1010.11
2017-10-19T08:32:49.292Z,1010.13
2017-10-19T08:34:01.877Z,1010.08
2017-10-19T08:35:14.459Z,1010.09
2017-10-19T08:36:27.076Z,1010.1
2017-10-19T08:37:39.364Z,1010.16
2017-10-19T08:38:51.919Z,1010.13
2017-10-19T08:40:04.489Z,1010.13
2017-10-19T08:41:16.427Z,1010.11
2017-10-19T08:42:28.696Z,1010.1
2017-10-19T08:43:41.274Z,1010.15
2017-10-19T08:44:53.851Z,1010.17
2017-10-19T08:46:05.461Z,1010.16
2017-10-19T08:47:18.036Z,1010.14
2017-10-19T08:48:30.000Z,1010.16
2017-10-19T08:49:42.578Z,1010.17
2017-10-19T08:50:55.147Z,1010.21
2017-10-19T08:52:07.093Z,1010.23
2017-10-19T08:53:19.357Z,1010.22
2017-10-19T08:54:31.916Z,1010.21
2017-10-19T08:55:44.484Z,1010.24
2017-10-19T08:56:56.728Z,1010.24
2017-10-19T08:58:08.975Z,1010.28
2017-10-19T08:59:21.217Z,1010.32
2017-10-19T09:00:33.789Z,1010.31
2017-10-19T09:01:46.042Z,1010.3
2017-10-19T09:02:58.605Z,1010.35
2017-10-19T09:04:10.855Z,1010.34
2017-10-19T09:05:23.140Z,1010.4
2017-10-19T09:06:35.734Z,1010.37
2017-10-19T09:07:48.304Z,1010.34
2017-10-19T09:09:00.589Z,1010.3
2017-10-19T09:10:13.154Z,1010.32
2017-10-19T09:11:25.750Z,1010.31
2017-10-19T09:12:37.695Z,1010.32
2017-10-19T09:13:50.316Z,1010.34
2017-10-19T09:15:02.578Z,1010.37
2017-10-19T09:16:15.156Z,1010.31
2017-10-19T09:17:27.419Z,1010.33
2017-10-19T09:18:39.675Z,1010.33
2017-10-19T09:19:52.245Z,1010.29
2017-10-19T09:21:04.491Z,1010.34
2017-10-19T09:22:16.084Z,1010.33
2017-10-19T09:23:28.335Z,1010.32
2017-10-19T09:24:39.945Z,1010.32
2017-10-19T09:25:51.878Z,1010.26
2017-10-19T09:27:04.125Z,1010.29
2017-10-19T09:28:16.692Z,1010.28
2017-10-19T09:29:29.251Z,1010.36
2017-10-19T09:30:41.497Z,1010.39
2017-10-19T09:31:54.057Z,1010.39
2017-10-19T09:33:06.626Z,1010.41
2017-10-19T09:34:18.235Z,1010.41
2017-10-19T09:35:30.814Z,1010.39
2017-10-19T09:36:43.383Z,1010.39
2017-10-19T09:37:55.881Z,1010.45
2017-10-19T09:39:08.127Z,1010.44
2017-10-19T09:40:20.376Z,1010.45
2017-10-19T09:41:32.620Z,1010.42
2017-10-19T09:42:45.185Z,1010.45
2017-10-19T09:43:57.466Z,1010.49
2017-10-19T09:45:09.081Z,1010.43
2017-10-19T09:46:21.648Z,1010.45
2017-10-19T09:47:34.219Z,1010.41
2017-10-19T09:48:46.491Z,1010.42
2017-10-19T09:49:59.060Z,1010.44
2017-10-19T09:51:11.635Z,1010.43
2017-10-19T09:52:23.878Z,1010.41
2017-10-19T09:53:35.813Z,1010.4
2017-10-19T09:54:48.392Z,1010.45
2017-10-19T09:56:00.649Z,1010.5
2017-10-19T09:57:12.913Z,1010.51
2017-10-19T09:58:25.172Z,1010.47
2017-10-19T09:59:37.754Z,1010.48
2017-10-19T10:00:50.327Z,1010.53
2017-10-19T10:02:02.908Z,1010.5
2017-10-19T10:03:14.862Z,1010.5
2017-10-19T10:04:27.433Z,1010.52
2017-10-19T10:05:39.678Z,1010.52
2017-10-19T10:06:51.904Z,1010.56
2017-10-19T10:08:04.162Z,1010.55
2017-10-19T10:09:16.782Z,1010.54
2017-10-19T10:10:29.031Z,1010.54
2017-10-19T10:11:41.649Z,1010.54
2017-10-19T10:12:53.582Z,1010.49
2017-10-19T10:14:06.148Z,1010.52
2017-10-19T10:15:18.069Z,1010.56
2017-10-19T10:16:30.639Z,1010.55
2017-10-19T10:17:42.890Z,1010.54
2017-10-19T10:18:55.131Z,1010.52
2017-10-19T10:20:07.411Z,1010.5
2017-10-19T10:21:19.338Z,1010.51
2017-10-19T10:22:31.585Z,1010.53
2017-10-19T10:23:44.191Z,1010.54
2017-10-19T10:24:56.439Z,1010.6
2017-10-19T10:26:08.684Z,1010.57
2017-10-19T10:27:20.927Z,1010.52
2017-10-19T10:28:33.177Z,1010.6
2017-10-19T10:29:45.117Z,1010.57
2017-10-19T10:30:57.689Z,1010.62
2017-10-19T10:32:10.261Z,1010.66
2017-10-19T10:33:22.509Z,1010.6
2017-10-19T10:34:35.078Z,1010.56
2017-10-19T10:35:47.644Z,1010.5
2017-10-19T10:37:00.222Z,1010.47
2017-10-19T10:38:12.479Z,1010.45
2017-10-19T10:39:24.732Z,1010.46
2017-10-19T10:40:37.304Z,1010.43
2017-10-19T10:41:49.874Z,1010.38
2017-10-19T10:43:02.119Z,1010.35
2017-10-19T10:44:14.693Z,1010.39
2017-10-19T10:45:27.260Z,1010.38
2017-10-19T10:46:39.831Z,1010.38
2017-10-19T10:47:52.403Z,1010.34
2017-10-19T10:49:04.650Z,1010.37
2017-10-19T10:50:17.221Z,1010.35
2017-10-19T10:51:29.787Z,1010.32
2017-10-19T10:52:41.711Z,1010.34
2017-10-19T10:53:53.684Z,1010.3
2017-10-19T10:55:06.251Z,1010.25
2017-10-19T10:56:18.500Z,1010.26
2017-10-19T10:57:30.751Z,1010.31
2017-10-19T10:58:43.004Z,1010.3
2017-10-19T10:59:55.251Z,1010.36
2017-10-19T11:01:07.504Z,1010.28
2017-10-19T11:02:20.099Z,1010.36
2017-10-19T11:03:31.712Z,1010.29
2017-10-19T11:04:44.294Z,1010.31
2017-10-19T11:05:56.866Z,1010.24
2017-10-19T11:07:09.125Z,1010.23
2017-10-19T11:08:20.727Z,1010.24
2017-10-19T11:09:33.315Z,1010.26
2017-10-19T11:10:45.898Z,1010.19
2017-10-19T11:11:58.471Z,1010.21
2017-10-19T11:13:10.727Z,1010.2
2017-10-19T11:14:23.307Z,1010.24
2017-10-19T11:15:35.554Z,1010.24
2017-10-19T11:16:48.115Z,1010.32
2017-10-19T11:18:00.367Z,1010.32
2017-10-19T11:19:12.639Z,1010.25
2017-10-19T11:20:24.584Z,1010.2
2017-10-19T11:21:37.206Z,1010.2
2017-10-19T11:22:49.168Z,1010.23
2017-10-19T11:24:01.739Z,1010.36
2017-10-19T11:25:14.312Z,1010.32
2017-10-19T11:26:26.563Z,1010.36
2017-10-19T11:27:39.135Z,1010.31
2017-10-19T11:28:51.702Z,1010.3
2017-10-19T11:30:03.975Z,1010.21
2017-10-19T11:31:16.223Z,1010.23
2017-10-19T11:32:28.484Z,1010.2
2017-10-19T11:33:40.737Z,1010.22
2017-10-19T11:34:52.981Z,1010.18
2017-10-19T11:36:05.569Z,1010.19
2017-10-19T11:37:18.126Z,1010.12
2017-10-19T11:38:30.693Z,1010.07
2017-10-19T11:39:43.255Z,1010.08
2017-10-19T11:40:55.511Z,1010.05
2017-10-19T11:42:08.080Z,1010.08
2017-10-19T11:43:20.331Z,1010.13
2017-10-19T11:44:32.899Z,1010.12
2017-10-19T11:45:45.152Z,1010.11
2017-10-19T11:46:57.413Z,1010.07
2017-10-19T11:48:09.983Z,1010.06
2017-10-19T11:49:22.229Z,1010.04
2017-10-19T11:50:34.176Z,1010.08
2017-10-19T11:51:46.438Z,1010.03
2017-10-19T11:52:58.691Z,1010
2017-10-19T11:54:11.279Z,1010.02
2017-10-19T11:55:23.536Z,1010.06
2017-10-19T11:56:35.795Z,1010.06
2017-10-19T11:57:48.377Z,1010.07
2017-10-19T11:59:00.987Z,1010.04
2017-10-19T12:00:13.241Z,1010.07
2017-10-19T12:01:25.516Z,1010.07
2017-10-19T12:02:37.782Z,1010.09
2017-10-19T12:03:50.045Z,1010.06
2017-10-19T12:05:01.977Z,1010.06
2017-10-19T12:06:13.611Z,1010.03
2017-10-19T12:07:26.202Z,1010.02
2017-10-19T12:08:38.466Z,1009.98
2017-10-19T12:09:51.031Z,1009.95
2017-10-19T12:11:03.626Z,1009.95
2017-10-19T12:12:15.897Z,1009.95
2017-10-19T12:13:28.144Z,1009.92
2017-10-19T12:14:40.731Z,1009.95
2017-10-19T12:15:53.327Z,1010.04
2017-10-19T12:17:05.276Z,1009.99
2017-10-19T12:18:17.229Z,1009.96
2017-10-19T12:19:29.796Z,1009.99
2017-10-19T12:20:41.741Z,1009.97
2017-10-19T12:21:53.992Z,1009.93
2017-10-19T12:23:06.559Z,1009.92
2017-10-19T12:24:18.495Z,1009.89
2017-10-19T12:25:30.748Z,1009.85
2017-10-19T12:26:43.325Z,1009.89
2017-10-19T12:27:55.894Z,1009.88
2017-10-19T12:29:08.462Z,1009.89
2017-10-19T12:30:21.036Z,1009.87
2017-10-19T12:31:33.295Z,1009.91
2017-10-19T12:32:45.553Z,1009.92
2017-10-19T12:33:58.161Z,1009.89
2017-10-19T12:35:10.093Z,1009.92
2017-10-19T12:36:22.340Z,1009.95
2017-10-19T12:37:34.905Z,1009.93
2017-10-19T12:38:47.156Z,1009.95
2017-10-19T12:39:59.422Z,1009.9
2017-10-19T12:41:12.022Z,1009.92
2017-10-19T12:42:24.267Z,1009.9
2017-10-19T12:43:36.839Z,1009.88
2017-10-19T12:44:49.104Z,1009.87
2017-10-19T12:46:01.030Z,1009.89
2017-10-19T12:47:13.275Z,1009.83
2017-10-19T12:48:25.858Z,1009.85
2017-10-19T12:49:38.129Z,1009.84
2017-10-19T12:50:50.708Z,1009.86
2017-10-19T12:52:03.271Z,1009.86
2017-10-19T12:53:15.524Z,1009.85
2017-10-19T12:54:27.774Z,1009.79
2017-10-19T12:55:40.358Z,1009.77
2017-10-19T12:56:52.303Z,1009.79
2017-10-19T12:58:04.559Z,1009.78
2017-10-19T12:59:16.806Z,1009.76
2017-10-19T13:00:29.065Z,1009.75
2017-10-19T13:01:41.661Z,1009.74
2017-10-19T13:02:54.240Z,1009.73
2017-10-19T13:04:06.487Z,1009.7
2017-10-19T13:05:19.073Z,1009.69
2017-10-19T13:06:31.351Z,1009.63
2017-10-19T13:07:43.921Z,1009.6
2017-10-19T13:08:56.191Z,1009.68
2017-10-19T13:10:08.769Z,1009.67
2017-10-19T13:11:21.340Z,1009.68
2017-10-19T13:12:33.596Z,1009.66
2017-10-19T13:13:45.528Z,1009.67
2017-10-19T13:14:57.789Z,1009.68
2017-10-19T13:16:10.045Z,1009.65
2017-10-19T13:17:22.612Z,1009.64
2017-10-19T13:18:34.867Z,1009.69
2017-10-19T13:19:47.122Z,1009.69
2017-10-19T13:20:59.404Z,1009.66
2017-10-19T13:22:11.986Z,1009.65
2017-10-19T13:23:23.919Z,1009.6
2017-10-19T13:24:36.512Z,1009.65
2017-10-19T13:25:49.107Z,1009.65
2017-10-19T13:27:01.679Z,1009.66
2017-10-19T13:28:13.602Z,1009.64
2017-10-19T13:29:25.860Z,1009.64
2017-10-19T13:30:38.439Z,1009.64
2017-10-19T13:31:51.010Z,1009.6
2017-10-19T13:33:02.956Z,1009.64
2017-10-19T13:34:15.550Z,1009.61
2017-10-19T13:35:27.501Z,1009.71
2017-10-19T13:36:39.760Z,1009.65
2017-10-19T13:37:52.006Z,1009.69
2017-10-19T13:39:04.264Z,1009.68
2017-10-19T13:40:16.506Z,1009.67
2017-10-19T13:41:29.075Z,1009.65
2017-10-19T13:42:40.696Z,1009.65
2017-10-19T13:43:53.261Z,1009.67
2017-10-19T13:45:05.516Z,1009.6
2017-10-19T13:46:18.085Z,1009.55
2017-10-19T13:47:30.677Z,1009.57
2017-10-19T13:48:42.949Z,1009.53
2017-10-19T13:49:55.523Z,1009.51
2017-10-19T13:51:08.114Z,1009.51
2017-10-19T13:52:20.039Z,1009.51
2017-10-19T13:53:31.973Z,1009.48
2017-10-19T13:54:44.533Z,1009.45
2017-10-19T13:55:56.140Z,1009.44
2017-10-19T13:57:08.736Z,1009.44
2017-10-19T13:58:21.233Z,1009.51
2017-10-19T13:59:33.514Z,1009.49
2017-10-19T14:00:45.779Z,1009.51
2017-10-19T14:01:57.393Z,1009.54
2017-10-19T14:03:09.663Z,1009.52
2017-10-19T14:04:21.297Z,1009.48
2017-10-19T14:05:33.542Z,1009.45
2017-10-19T14:06:46.109Z,1009.44
2017-10-19T14:07:58.359Z,1009.44
2017-10-19T14:09:10.603Z,1009.45
2017-10-19T14:10:23.173Z,1009.46
2017-10-19T14:11:35.744Z,1009.5
2017-10-19T14:12:48.316Z,1009.43
2017-10-19T14:14:00.562Z,1009.46
2017-10-19T14:15:12.847Z,1009.48
2017-10-19T14:16:24.760Z,1009.5
2017-10-19T14:17:37.326Z,1009.52
2017-10-19T14:18:49.258Z,1009.51
2017-10-19T14:20:01.836Z,1009.48
2017-10-19T14:21:14.085Z,1009.49
2017-10-19T14:22:26.331Z,1009.46
2017-10-19T14:23:38.902Z,1009.47
2017-10-19T14:24:51.173Z,1009.48
2017-10-19T14:26:03.114Z,1009.47
2017-10-19T14:27:14.727Z,1009.51
2017-10-19T14:28:27.005Z,1009.43
2017-10-19T14:29:39.581Z,1009.44
2017-10-19T14:30:51.829Z,1009.42
2017-10-19T14:32:04.393Z,1009.47
2017-10-19T14:33:16.968Z,1009.4
2017-10-19T14:34:29.208Z,1009.42
2017-10-19T14:35:41.134Z,1009.37
2017-10-19T14:36:53.376Z,1009.39
2017-10-19T14:38:05.624Z,1009.35
2017-10-19T14:39:17.883Z,1009.35